Brandon Kyle — WDJ3076 — position and weather

sailwx.info

Track history (hours):
 
Tides and Currents Weather Stations Pressure Air Temp Water Temp Dewpoint Dewpoint Depression Visibility Wind Speed Wind Dir Waves Ship Positions

Brandon Kyle

Owner: D&S Marine Service LLC Brandon Kyle, Gray, LA. More information available from US FCC via Universal Licensing System and Coast Guard Vessel Documentation Center.

Last reported at 2017-Nov-16 11:17 UTC. Time now 2017-Nov-18 08:56 UTC.
Position N 29°58' W 093°51'.

Length 23 m; draft 3 m.

Type: . MMSI: 367764520.

Date/timePositionNaut miles runAvg speedWind from/ knotsBaromVisibWave heightAir tempDewpointWater temp
2017-Nov-16 11:17N 29°58' W 093°51'0 0.0
2017-Nov-16 09:56N 29°58' W 093°51'0 0.0
2017-Nov-16 09:23N 29°58' W 093°51'1 0.1
2017-Nov-15 15:54N 29°59' W 093°52'2 4.8
2017-Nov-15 15:29N 29°59' W 093°55'9 3.8
2017-Nov-15 13:09N 30°01' W 093°44'1 6.2
2017-Nov-15 12:59N 30°03' W 093°44'3 5.6
2017-Nov-15 12:27N 30°04' W 093°41'2 5.2
2017-Nov-15 11:59N 30°04' W 093°38'5 3.5
2017-Nov-15 10:39N 30°04' W 093°33'0 0.0
2017-Nov-15 10:30N 30°04' W 093°33'0 0.0
2017-Nov-15 10:00N 30°04' W 093°33'0 0.0
2017-Nov-15 09:30N 30°04' W 093°33'0 0.1
2017-Nov-15 09:00N 30°04' W 093°33'0 0.3
2017-Nov-15 08:30N 30°04' W 093°32'0 0.3
2017-Nov-15 08:00N 30°04' W 093°32'0 0.9
2017-Nov-15 07:30N 30°04' W 093°32'3 5.1
2017-Nov-15 07:01N 30°04' W 093°29'3 5.0
2017-Nov-15 06:31N 30°04' W 093°26'3 5.2
2017-Nov-15 06:00N 30°04' W 093°23'2 4.1
2017-Nov-15 05:31N 30°04' W 093°21'1 2.7
2017-Nov-15 05:01N 30°05' W 093°20'1 1.6
2017-Nov-15 04:31N 30°06' W 093°19'0 0.0
2017-Nov-15 04:01N 30°06' W 093°19'0 0.1
2017-Nov-15 03:30N 30°06' W 093°19'1 3.0
2017-Nov-15 03:00N 30°05' W 093°18'1 2.7
2017-Nov-15 02:31N 30°04' W 093°16'0 0.0
2017-Nov-15 02:01N 30°04' W 093°16'0 0.0
2017-Nov-15 01:31N 30°04' W 093°16'0 0.0
2017-Nov-15 01:00N 30°04' W 093°16'0 0.0
2017-Nov-15 00:30N 30°04' W 093°16'0 0.5
2017-Nov-15 00:01N 30°04' W 093°16'0 0.6
2017-Nov-14 23:31N 30°04' W 093°16'2 3.5
2017-Nov-14 23:00N 30°02' W 093°15'3 5.5
2017-Nov-14 22:30N 30°00' W 093°14'3 5.8
2017-Nov-14 22:01N 29°58' W 093°11'3 5.5
2017-Nov-14 21:30N 29°56' W 093°09'3 5.8
2017-Nov-14 21:00N 29°56' W 093°06'3 5.7
2017-Nov-14 20:30N 29°56' W 093°02'34 3.3
2017-Nov-14 10:10N 29°53' W 092°23'1 5.0
2017-Nov-14 10:00N 29°52' W 092°23'3 4.3
2017-Nov-14 09:23N 29°51' W 092°20'2 4.6
2017-Nov-14 08:52N 29°50' W 092°18'1 3.4
2017-Nov-14 08:30N 29°49' W 092°17'3 5.2
2017-Nov-14 07:57N 29°48' W 092°14'2 3.2
2017-Nov-14 07:29N 29°47' W 092°12'1 1.9
2017-Nov-14 07:00N 29°47' W 092°11'0 0.0
2017-Nov-14 06:29N 29°47' W 092°11'0 0.1
2017-Nov-14 05:53N 29°47' W 092°11'0 1.1
2017-Nov-14 05:29N 29°47' W 092°11'0 0.0
2017-Nov-14 04:59N 29°47' W 092°11'0 0.0
2017-Nov-14 04:17N 29°47' W 092°11'0 0.0
2017-Nov-14 04:00N 29°47' W 092°11'1 2.7
2017-Nov-14 03:29N 29°47' W 092°09'3 5.6
2017-Nov-14 02:58N 29°48' W 092°06'4 5.9
2017-Nov-14 02:21N 29°49' W 092°02'2 5.6
2017-Nov-14 01:59N 29°50' W 091°60'2 4.2
2017-Nov-14 01:30N 29°50' W 091°58'2 3.3
2017-Nov-14 01:00N 29°51' W 091°56'  
2017-Nov-09 20:32N 29°33' W 090°24'0 4.9
2017-Nov-09 20:27N 29°33' W 090°25'2 4.9
2017-Nov-09 20:00N 29°33' W 090°27'2 3.1
2017-Nov-09 19:30N 29°34' W 090°29'2 4.4
2017-Nov-09 19:00N 29°34' W 090°31'2 3.2
2017-Nov-09 18:30N 29°34' W 090°33'2 4.3
2017-Nov-09 18:00N 29°35' W 090°36'2 4.1
2017-Nov-09 17:30N 29°35' W 090°38'0 0.6
2017-Nov-09 17:00N 29°35' W 090°38'0 0.6
2017-Nov-09 16:30N 29°35' W 090°38'2 3.7
2017-Nov-09 16:00N 29°36' W 090°40'2 3.1
2017-Nov-09 15:30N 29°37' W 090°42'2 3.5
2017-Nov-09 15:00N 29°35' W 090°43'2 3.3
2017-Nov-09 14:30N 29°34' W 090°44'0 0.9
2017-Nov-09 13:58N 29°34' W 090°44'0 0.2
2017-Nov-09 13:30N 29°34' W 090°45'2 3.2
2017-Nov-09 13:00N 29°32' W 090°46'2 4.3
2017-Nov-09 12:30N 29°32' W 090°48'2 4.7
2017-Nov-09 12:00N 29°32' W 090°51'2 4.2
2017-Nov-09 11:27N 29°33' W 090°53'2 4.5
2017-Nov-09 10:58N 29°34' W 090°56'2 4.5
2017-Nov-09 10:25N 29°35' W 090°58'52 3.3
2017-Nov-08 18:36N 29°51' W 091°54'0 4.9
2017-Nov-08 18:30N 29°51' W 091°55'2 4.2
2017-Nov-08 18:00N 29°50' W 091°57'2 4.5
2017-Nov-08 17:30N 29°50' W 091°60'2 4.4
2017-Nov-08 17:00N 29°49' W 092°02'2 4.4
2017-Nov-08 16:30N 29°48' W 092°05'2 4.3
2017-Nov-08 16:00N 29°48' W 092°07'2 4.4
2017-Nov-08 15:30N 29°47' W 092°09'1 2.4
2017-Nov-08 15:00N 29°47' W 092°11'1 1.3
2017-Nov-08 14:30N 29°47' W 092°11'1 2.7
2017-Nov-08 14:00N 29°47' W 092°13'0 0.9
2017-Nov-08 13:28N 29°47' W 092°13'0 0.0
2017-Nov-08 12:59N 29°47' W 092°13'0 0.1
2017-Nov-08 12:28N 29°47' W 092°13'0 0.0
2017-Nov-08 11:58N 29°47' W 092°13'0 0.0
2017-Nov-08 11:28N 29°47' W 092°13'0 0.0
2017-Nov-08 11:00N 29°47' W 092°13'0 0.0
2017-Nov-08 10:30N 29°47' W 092°13'0 0.0
2017-Nov-08 10:00N 29°47' W 092°13'0 0.0
2017-Nov-08 09:30N 29°47' W 092°13'0 0.1
2017-Nov-08 09:00N 29°47' W 092°13'2 3.2
2017-Nov-08 08:30N 29°48' W 092°15'2 3.1
2017-Nov-08 08:00N 29°49' W 092°17'2 3.0
2017-Nov-08 07:30N 29°50' W 092°18'1 2.1
2017-Nov-08 07:00N 29°50' W 092°19'0 0.8
2017-Nov-08 06:30N 29°50' W 092°19'0 0.2
2017-Nov-08 06:00N 29°50' W 092°19'0 0.2
2017-Nov-08 05:30N 29°50' W 092°20'0 0.0
2017-Nov-08 05:00N 29°50' W 092°20'1 1.6
2017-Nov-08 04:30N 29°51' W 092°20'2 3.2
2017-Nov-08 04:00N 29°52' W 092°22'1 2.0
2017-Nov-08 03:30N 29°52' W 092°23'2 2.6
2017-Nov-08 02:54N 29°53' W 092°24'2 4.3
2017-Nov-08 02:29N 29°53' W 092°26'31 3.6
2017-Nov-07 17:55N 29°56' W 093°02'2 4.5
2017-Nov-07 17:30N 29°56' W 093°04'2 4.3
2017-Nov-07 17:00N 29°56' W 093°06'2 4.2
2017-Nov-07 16:30N 29°56' W 093°09'2 3.8
2017-Nov-07 16:00N 29°57' W 093°11'2 4.4
2017-Nov-07 15:30N 29°59' W 093°12'2 4.1
2017-Nov-07 15:00N 30°00' W 093°14'2 3.5
2017-Nov-07 14:30N 30°02' W 093°15'2 3.4
2017-Nov-07 14:00N 30°03' W 093°16'2 4.0
2017-Nov-07 13:30N 30°05' W 093°17'1 1.8
2017-Nov-07 13:00N 30°06' W 093°18'1 1.1
2017-Nov-07 12:30N 30°06' W 093°18'0 0.1
2017-Nov-07 12:00N 30°06' W 093°18'1 2.1
2017-Nov-07 11:30N 30°06' W 093°19'2 4.0
2017-Nov-07 11:00N 30°04' W 093°21'2 3.6
2017-Nov-07 10:30N 30°04' W 093°23'0 0.5
2017-Nov-07 10:00N 30°04' W 093°23'0 0.2
2017-Nov-07 09:30N 30°04' W 093°23'0 0.2
2017-Nov-07 09:00N 30°04' W 093°23'0 0.7
2017-Nov-07 08:30N 30°04' W 093°24'2 3.9
2017-Nov-07 08:00N 30°04' W 093°26'2 4.5
2017-Nov-07 07:30N 30°04' W 093°29'2 4.6
2017-Nov-07 07:00N 30°04' W 093°31'2 4.5
2017-Nov-07 06:30N 30°04' W 093°34'2 4.5
2017-Nov-07 06:00N 30°04' W 093°37'2 4.2
2017-Nov-07 05:25N 30°04' W 093°39'2 5.1
2017-Nov-07 04:59N 30°03' W 093°42'2 4.9
2017-Nov-07 04:29N 30°02' W 093°44'11 4.1
2017-Nov-07 01:43N 30°00' W 093°57'  
Track history (hours):
 
Tides and Currents Weather Stations Pressure Air Temp Water Temp Dewpoint Dewpoint Depression Visibility Wind Speed Wind Dir Waves Ship Positions

Brandon Kyle

Owner: D&S Marine Service LLC Brandon Kyle, Gray, LA. More information available from US FCC via Universal Licensing System and Coast Guard Vessel Documentation Center.

Last reported at 2017-Nov-16 11:17 UTC. Time now 2017-Nov-18 08:56 UTC.
Position N 29°58' W 093°51'.

Length 23 m; draft 3 m.

Type: . MMSI: 367764520.

Date/timePositionNaut miles runAvg speedWind from/ knotsBaromVisibWave heightAir tempDewpointWater temp
2017-Nov-16 11:17N 29°58' W 093°51'0 0.0
2017-Nov-16 09:56N 29°58' W 093°51'0 0.0
2017-Nov-16 09:23N 29°58' W 093°51'1 0.1
2017-Nov-15 15:54N 29°59' W 093°52'2 4.8
2017-Nov-15 15:29N 29°59' W 093°55'9 3.8
2017-Nov-15 13:09N 30°01' W 093°44'1 6.2
2017-Nov-15 12:59N 30°03' W 093°44'3 5.6
2017-Nov-15 12:27N 30°04' W 093°41'2 5.2
2017-Nov-15 11:59N 30°04' W 093°38'5 3.5
2017-Nov-15 10:39N 30°04' W 093°33'0 0.0
2017-Nov-15 10:30N 30°04' W 093°33'0 0.0
2017-Nov-15 10:00N 30°04' W 093°33'0 0.0
2017-Nov-15 09:30N 30°04' W 093°33'0 0.1
2017-Nov-15 09:00N 30°04' W 093°33'0 0.3
2017-Nov-15 08:30N 30°04' W 093°32'0 0.3
2017-Nov-15 08:00N 30°04' W 093°32'0 0.9
2017-Nov-15 07:30N 30°04' W 093°32'3 5.1
2017-Nov-15 07:01N 30°04' W 093°29'3 5.0
2017-Nov-15 06:31N 30°04' W 093°26'3 5.2
2017-Nov-15 06:00N 30°04' W 093°23'2 4.1
2017-Nov-15 05:31N 30°04' W 093°21'1 2.7
2017-Nov-15 05:01N 30°05' W 093°20'1 1.6
2017-Nov-15 04:31N 30°06' W 093°19'0 0.0
2017-Nov-15 04:01N 30°06' W 093°19'0 0.1
2017-Nov-15 03:30N 30°06' W 093°19'1 3.0
2017-Nov-15 03:00N 30°05' W 093°18'1 2.7
2017-Nov-15 02:31N 30°04' W 093°16'0 0.0
2017-Nov-15 02:01N 30°04' W 093°16'0 0.0
2017-Nov-15 01:31N 30°04' W 093°16'0 0.0
2017-Nov-15 01:00N 30°04' W 093°16'0 0.0
2017-Nov-15 00:30N 30°04' W 093°16'0 0.5
2017-Nov-15 00:01N 30°04' W 093°16'0 0.6
2017-Nov-14 23:31N 30°04' W 093°16'2 3.5
2017-Nov-14 23:00N 30°02' W 093°15'3 5.5
2017-Nov-14 22:30N 30°00' W 093°14'3 5.8
2017-Nov-14 22:01N 29°58' W 093°11'3 5.5
2017-Nov-14 21:30N 29°56' W 093°09'3 5.8
2017-Nov-14 21:00N 29°56' W 093°06'3 5.7
2017-Nov-14 20:30N 29°56' W 093°02'34 3.3
2017-Nov-14 10:10N 29°53' W 092°23'1 5.0
2017-Nov-14 10:00N 29°52' W 092°23'3 4.3
2017-Nov-14 09:23N 29°51' W 092°20'2 4.6
2017-Nov-14 08:52N 29°50' W 092°18'1 3.4
2017-Nov-14 08:30N 29°49' W 092°17'3 5.2
2017-Nov-14 07:57N 29°48' W 092°14'2 3.2
2017-Nov-14 07:29N 29°47' W 092°12'1 1.9
2017-Nov-14 07:00N 29°47' W 092°11'0 0.0
2017-Nov-14 06:29N 29°47' W 092°11'0 0.1
2017-Nov-14 05:53N 29°47' W 092°11'0 1.1
2017-Nov-14 05:29N 29°47' W 092°11'0 0.0
2017-Nov-14 04:59N 29°47' W 092°11'0 0.0
2017-Nov-14 04:17N 29°47' W 092°11'0 0.0
2017-Nov-14 04:00N 29°47' W 092°11'1 2.7
2017-Nov-14 03:29N 29°47' W 092°09'3 5.6
2017-Nov-14 02:58N 29°48' W 092°06'4 5.9
2017-Nov-14 02:21N 29°49' W 092°02'2 5.6
2017-Nov-14 01:59N 29°50' W 091°60'2 4.2
2017-Nov-14 01:30N 29°50' W 091°58'2 3.3
2017-Nov-14 01:00N 29°51' W 091°56'  
2017-Nov-09 20:32N 29°33' W 090°24'0 4.9
2017-Nov-09 20:27N 29°33' W 090°25'2 4.9
2017-Nov-09 20:00N 29°33' W 090°27'2 3.1
2017-Nov-09 19:30N 29°34' W 090°29'2 4.4
2017-Nov-09 19:00N 29°34' W 090°31'2 3.2
2017-Nov-09 18:30N 29°34' W 090°33'2 4.3
2017-Nov-09 18:00N 29°35' W 090°36'2 4.1
2017-Nov-09 17:30N 29°35' W 090°38'0 0.6
2017-Nov-09 17:00N 29°35' W 090°38'0 0.6
2017-Nov-09 16:30N 29°35' W 090°38'2 3.7
2017-Nov-09 16:00N 29°36' W 090°40'2 3.1
2017-Nov-09 15:30N 29°37' W 090°42'2 3.5
2017-Nov-09 15:00N 29°35' W 090°43'2 3.3
2017-Nov-09 14:30N 29°34' W 090°44'0 0.9
2017-Nov-09 13:58N 29°34' W 090°44'0 0.2
2017-Nov-09 13:30N 29°34' W 090°45'2 3.2
2017-Nov-09 13:00N 29°32' W 090°46'2 4.3
2017-Nov-09 12:30N 29°32' W 090°48'2 4.7
2017-Nov-09 12:00N 29°32' W 090°51'2 4.2
2017-Nov-09 11:27N 29°33' W 090°53'2 4.5
2017-Nov-09 10:58N 29°34' W 090°56'2 4.5
2017-Nov-09 10:25N 29°35' W 090°58'52 3.3
2017-Nov-08 18:36N 29°51' W 091°54'0 4.9
2017-Nov-08 18:30N 29°51' W 091°55'2 4.2
2017-Nov-08 18:00N 29°50' W 091°57'2 4.5
2017-Nov-08 17:30N 29°50' W 091°60'2 4.4
2017-Nov-08 17:00N 29°49' W 092°02'2 4.4
2017-Nov-08 16:30N 29°48' W 092°05'2 4.3
2017-Nov-08 16:00N 29°48' W 092°07'2 4.4
2017-Nov-08 15:30N 29°47' W 092°09'1 2.4
2017-Nov-08 15:00N 29°47' W 092°11'1 1.3
2017-Nov-08 14:30N 29°47' W 092°11'1 2.7
2017-Nov-08 14:00N 29°47' W 092°13'0 0.9
2017-Nov-08 13:28N 29°47' W 092°13'0 0.0
2017-Nov-08 12:59N 29°47' W 092°13'0 0.1
2017-Nov-08 12:28N 29°47' W 092°13'0 0.0
2017-Nov-08 11:58N 29°47' W 092°13'0 0.0
2017-Nov-08 11:28N 29°47' W 092°13'0 0.0
2017-Nov-08 11:00N 29°47' W 092°13'0 0.0
2017-Nov-08 10:30N 29°47' W 092°13'0 0.0
2017-Nov-08 10:00N 29°47' W 092°13'0 0.0
2017-Nov-08 09:30N 29°47' W 092°13'0 0.1
2017-Nov-08 09:00N 29°47' W 092°13'2 3.2
2017-Nov-08 08:30N 29°48' W 092°15'2 3.1
2017-Nov-08 08:00N 29°49' W 092°17'2 3.0
2017-Nov-08 07:30N 29°50' W 092°18'1 2.1
2017-Nov-08 07:00N 29°50' W 092°19'0 0.8
2017-Nov-08 06:30N 29°50' W 092°19'0 0.2
2017-Nov-08 06:00N 29°50' W 092°19'0 0.2
2017-Nov-08 05:30N 29°50' W 092°20'0 0.0
2017-Nov-08 05:00N 29°50' W 092°20'1 1.6
2017-Nov-08 04:30N 29°51' W 092°20'2 3.2
2017-Nov-08 04:00N 29°52' W 092°22'1 2.0
2017-Nov-08 03:30N 29°52' W 092°23'2 2.6
2017-Nov-08 02:54N 29°53' W 092°24'2 4.3
2017-Nov-08 02:29N 29°53' W 092°26'31 3.6
2017-Nov-07 17:55N 29°56' W 093°02'2 4.5
2017-Nov-07 17:30N 29°56' W 093°04'2 4.3
2017-Nov-07 17:00N 29°56' W 093°06'2 4.2
2017-Nov-07 16:30N 29°56' W 093°09'2 3.8
2017-Nov-07 16:00N 29°57' W 093°11'2 4.4
2017-Nov-07 15:30N 29°59' W 093°12'2 4.1
2017-Nov-07 15:00N 30°00' W 093°14'2 3.5
2017-Nov-07 14:30N 30°02' W 093°15'2 3.4
2017-Nov-07 14:00N 30°03' W 093°16'2 4.0
2017-Nov-07 13:30N 30°05' W 093°17'1 1.8
2017-Nov-07 13:00N 30°06' W 093°18'1 1.1
2017-Nov-07 12:30N 30°06' W 093°18'0 0.1
2017-Nov-07 12:00N 30°06' W 093°18'1 2.1
2017-Nov-07 11:30N 30°06' W 093°19'2 4.0
2017-Nov-07 11:00N 30°04' W 093°21'2 3.6
2017-Nov-07 10:30N 30°04' W 093°23'0 0.5
2017-Nov-07 10:00N 30°04' W 093°23'0 0.2
2017-Nov-07 09:30N 30°04' W 093°23'0 0.2
2017-Nov-07 09:00N 30°04' W 093°23'0 0.7
2017-Nov-07 08:30N 30°04' W 093°24'2 3.9
2017-Nov-07 08:00N 30°04' W 093°26'2 4.5
2017-Nov-07 07:30N 30°04' W 093°29'2 4.6
2017-Nov-07 07:00N 30°04' W 093°31'2 4.5
2017-Nov-07 06:30N 30°04' W 093°34'2 4.5
2017-Nov-07 06:00N 30°04' W 093°37'2 4.2
2017-Nov-07 05:25N 30°04' W 093°39'2 5.1
2017-Nov-07 04:59N 30°03' W 093°42'2 4.9
2017-Nov-07 04:29N 30°02' W 093°44'11 4.1
2017-Nov-07 01:43N 30°00' W 093°57'  

Dump ship's entire track history